sensor_id;sensor_type;location;lat;lon;timestamp;pressure;altitude;pressure_sealevel;temperature;humidity
56414;BME280;42318;48.452;19.526;2023-04-01T00:03:58;96667.81;;;19.43;48.05
56414;BME280;42318;48.452;19.526;2023-04-01T00:11:29;96673.25;;;19.43;48.05
56414;BME280;42318;48.452;19.526;2023-04-01T00:19:00;96669.28;;;19.35;48.17
56414;BME280;42318;48.452;19.526;2023-04-01T00:26:31;96682.06;;;19.35;48.19
56414;BME280;42318;48.452;19.526;2023-04-01T00:34:02;96686.75;;;19.29;48.26
56414;BME280;42318;48.452;19.526;2023-04-01T00:41:33;96693.88;;;19.25;48.29
56414;BME280;42318;48.452;19.526;2023-04-01T00:49:03;96684.41;;;19.23;48.33
56414;BME280;42318;48.452;19.526;2023-04-01T00:56:41;96674.97;;;19.20;48.42
56414;BME280;42318;48.452;19.526;2023-04-01T01:04:30;96685.81;;;19.20;48.48
56414;BME280;42318;48.452;19.526;2023-04-01T01:12:13;96686.84;;;19.24;48.38
56414;BME280;42318;48.452;19.526;2023-04-01T01:27:34;96704.44;;;19.08;48.56
56414;BME280;42318;48.452;19.526;2023-04-01T01:42:52;96685.28;;;18.99;48.67
56414;BME280;42318;48.452;19.526;2023-04-01T01:50:25;96682.03;;;18.97;48.79
56414;BME280;42318;48.452;19.526;2023-04-01T01:58:27;96671.78;;;18.94;48.78
56414;BME280;42318;48.452;19.526;2023-04-01T02:06:01;96673.97;;;18.92;48.98
56414;BME280;42318;48.452;19.526;2023-04-01T02:21:15;96681.09;;;18.88;48.86
56414;BME280;42318;48.452;19.526;2023-04-01T02:28:48;96690.63;;;18.86;48.81
56414;BME280;42318;48.452;19.526;2023-04-01T02:36:20;96693.63;;;18.84;48.95
56414;BME280;42318;48.452;19.526;2023-04-01T02:43:51;96692.81;;;18.83;48.67
56414;BME280;42318;48.452;19.526;2023-04-01T02:51:22;96695.81;;;18.82;48.80
56414;BME280;42318;48.452;19.526;2023-04-01T02:58:53;96691.44;;;18.86;48.95
56414;BME280;42318;48.452;19.526;2023-04-01T03:06:24;96691.13;;;18.88;48.83
56414;BME280;42318;48.452;19.526;2023-04-01T03:13:55;96685.28;;;18.99;48.70
56414;BME280;42318;48.452;19.526;2023-04-01T03:21:26;96673.50;;;19.09;48.27
56414;BME280;42318;48.452;19.526;2023-04-01T03:28:57;96663.44;;;19.09;48.17
56414;BME280;42318;48.452;19.526;2023-04-01T03:36:28;96665.50;;;19.18;48.23
56414;BME280;42318;48.452;19.526;2023-04-01T03:43:58;96667.03;;;19.24;47.74
56414;BME280;42318;48.452;19.526;2023-04-01T03:51:29;96676.78;;;19.25;48.03
56414;BME280;42318;48.452;19.526;2023-04-01T03:59:02;96679.50;;;19.25;47.83
56414;BME280;42318;48.452;19.526;2023-04-01T04:06:33;96687.13;;;19.23;47.92
56414;BME280;42318;48.452;19.526;2023-04-01T04:14:04;96697.41;;;19.26;47.93
56414;BME280;42318;48.452;19.526;2023-04-01T04:21:35;96710.97;;;19.26;47.72
56414;BME280;42318;48.452;19.526;2023-04-01T04:29:06;96725.66;;;19.25;47.95
56414;BME280;42318;48.452;19.526;2023-04-01T04:36:37;96740.84;;;19.26;47.88
56414;BME280;42318;48.452;19.526;2023-04-01T04:44:07;96739.53;;;19.23;48.15
56414;BME280;42318;48.452;19.526;2023-04-01T04:51:38;96750.03;;;19.30;47.85
56414;BME280;42318;48.452;19.526;2023-04-01T04:59:09;96740.63;;;19.22;48.04
56414;BME280;42318;48.452;19.526;2023-04-01T05:06:42;96742.75;;;19.25;48.17
56414;BME280;42318;48.452;19.526;2023-04-01T05:14:15;96749.28;;;19.24;47.92
56414;BME280;42318;48.452;19.526;2023-04-01T05:21:46;96757.22;;;19.39;47.64
56414;BME280;42318;48.452;19.526;2023-04-01T05:29:17;96778.81;;;19.31;47.86
56414;BME280;42318;48.452;19.526;2023-04-01T05:36:48;96763.03;;;19.33;47.94
56414;BME280;42318;48.452;19.526;2023-04-01T05:44:19;96767.34;;;19.34;47.76
56414;BME280;42318;48.452;19.526;2023-04-01T05:51:50;96742.97;;;19.29;47.99
56414;BME280;42318;48.452;19.526;2023-04-01T05:59:21;96724.56;;;19.44;47.65
56414;BME280;42318;48.452;19.526;2023-04-01T06:06:52;96709.66;;;19.42;47.91
56414;BME280;42318;48.452;19.526;2023-04-01T06:14:34;96715.38;;;19.40;47.72
56414;BME280;42318;48.452;19.526;2023-04-01T06:22:45;96711.06;;;19.39;47.97
56414;BME280;42318;48.452;19.526;2023-04-01T06:30:34;96720.88;;;19.35;48.00
56414;BME280;42318;48.452;19.526;2023-04-01T06:46:40;96735.66;;;19.29;48.08
56414;BME280;42318;48.452;19.526;2023-04-01T06:54:17;96759.56;;;19.27;48.04
56414;BME280;42318;48.452;19.526;2023-04-01T07:01:57;96752.81;;;19.25;48.18
56414;BME280;42318;48.452;19.526;2023-04-01T07:09:37;96756.34;;;19.25;48.33
56414;BME280;42318;48.452;19.526;2023-04-01T07:17:17;96757.72;;;19.23;48.27
56414;BME280;42318;48.452;19.526;2023-04-01T07:24:51;96745.03;;;19.18;48.74
56414;BME280;42318;48.452;19.526;2023-04-01T07:32:38;96751.78;;;19.21;48.29
56414;BME280;42318;48.452;19.526;2023-04-01T08:03:43;96727.13;;;19.17;48.45
56414;BME280;42318;48.452;19.526;2023-04-01T08:11:25;96726.31;;;19.17;48.52
56414;BME280;42318;48.452;19.526;2023-04-01T08:26:39;96732.84;;;19.16;48.46
56414;BME280;42318;48.452;19.526;2023-04-01T08:34:17;96729.84;;;19.17;48.43
56414;BME280;42318;48.452;19.526;2023-04-01T08:42:13;96720.59;;;19.18;48.56
56414;BME280;42318;48.452;19.526;2023-04-01T09:29:23;96740.34;;;19.24;48.56
56414;BME280;42318;48.452;19.526;2023-04-01T09:37:18;96743.63;;;19.21;48.62
56414;BME280;42318;48.452;19.526;2023-04-01T09:45:01;96744.22;;;19.18;48.74
56414;BME280;42318;48.452;19.526;2023-04-01T09:52:38;96749.13;;;19.16;48.61
56414;BME280;42318;48.452;19.526;2023-04-01T10:08:43;96761.16;;;19.09;48.43
56414;BME280;42318;48.452;19.526;2023-04-01T10:16:39;96754.94;;;19.09;48.91
56414;BME280;42318;48.452;19.526;2023-04-01T10:56:42;96729.56;;;19.19;48.45
56414;BME280;42318;48.452;19.526;2023-04-01T11:04:35;96732.78;;;19.21;48.80
56414;BME280;42318;48.452;19.526;2023-04-01T11:28:14;96728.66;;;19.23;48.70
56414;BME280;42318;48.452;19.526;2023-04-01T11:35:59;96738.13;;;19.26;48.68
56414;BME280;42318;48.452;19.526;2023-04-01T11:43:51;96729.41;;;19.29;48.43
56414;BME280;42318;48.452;19.526;2023-04-01T11:59:32;96738.59;;;19.33;48.38
56414;BME280;42318;48.452;19.526;2023-04-01T12:39:11;96754.28;;;19.36;48.68
56414;BME280;42318;48.452;19.526;2023-04-01T12:46:56;96753.69;;;19.39;48.38
56414;BME280;42318;48.452;19.526;2023-04-01T14:54:05;96823.47;;;19.20;48.80
56414;BME280;42318;48.452;19.526;2023-04-01T15:02:12;96819.72;;;19.16;48.93
56414;BME280;42318;48.452;19.526;2023-04-01T16:12:31;96869.84;;;19.47;48.30
56414;BME280;42318;48.452;19.526;2023-04-01T16:20:20;96885.84;;;19.49;48.24
56414;BME280;42318;48.452;19.526;2023-04-01T16:43:30;96903.75;;;19.55;48.08
56414;BME280;42318;48.452;19.526;2023-04-01T16:51:12;96921.38;;;19.57;47.96
56414;BME280;42318;48.452;19.526;2023-04-01T16:59:07;96920.56;;;19.57;48.29
56414;BME280;42318;48.452;19.526;2023-04-01T17:06:50;96925.72;;;19.58;48.15
56414;BME280;42318;48.452;19.526;2023-04-01T17:37:53;96955.47;;;19.68;48.08
56414;BME280;42318;48.452;19.526;2023-04-01T17:53:49;96975.06;;;19.65;48.24
56414;BME280;42318;48.452;19.526;2023-04-01T18:17:24;96988.78;;;19.55;48.40
56414;BME280;42318;48.452;19.526;2023-04-01T18:40:25;96995.88;;;19.46;48.39
56414;BME280;42318;48.452;19.526;2023-04-01T18:55:42;96992.69;;;19.39;48.64
56414;BME280;42318;48.452;19.526;2023-04-01T19:18:51;97010.44;;;19.31;48.63
56414;BME280;42318;48.452;19.526;2023-04-01T19:41:58;97041.44;;;19.25;48.74
56414;BME280;42318;48.452;19.526;2023-04-01T20:04:53;97030.94;;;19.19;48.64
56414;BME280;42318;48.452;19.526;2023-04-01T20:27:44;97043.16;;;19.16;48.71
56414;BME280;42318;48.452;19.526;2023-04-01T20:51:04;97037.50;;;19.12;48.78
56414;BME280;42318;48.452;19.526;2023-04-01T20:58:48;97042.66;;;19.14;48.71
56414;BME280;42318;48.452;19.526;2023-04-01T21:21:46;97040.88;;;19.28;48.43
56414;BME280;42318;48.452;19.526;2023-04-01T22:01:00;97038.34;;;19.37;48.47
56414;BME280;42318;48.452;19.526;2023-04-01T22:08:43;97042.22;;;19.31;48.60
56414;BME280;42318;48.452;19.526;2023-04-01T22:24:17;97049.25;;;19.32;48.43
56414;BME280;42318;48.452;19.526;2023-04-01T22:32:07;97058.22;;;19.32;48.32
56414;BME280;42318;48.452;19.526;2023-04-01T22:39:59;97057.41;;;19.32;48.23
56414;BME280;42318;48.452;19.526;2023-04-01T22:47:45;97081.25;;;19.40;48.41
56414;BME280;42318;48.452;19.526;2023-04-01T23:10:54;97086.09;;;19.43;48.25
56414;BME280;42318;48.452;19.526;2023-04-01T23:26:21;97093.16;;;19.44;48.32
56414;BME280;42318;48.452;19.526;2023-04-01T23:33:58;97111.88;;;19.45;48.11
56414;BME280;42318;48.452;19.526;2023-04-01T23:41:30;97107.81;;;19.43;48.16
56414;BME280;42318;48.452;19.526;2023-04-01T23:49:03;97121.88;;;19.50;48.05
56414;BME280;42318;48.452;19.526;2023-04-01T23:56:44;97122.69;;;19.51;48.13
